ADDS METAR Data INFO
IDs: Format: Raw Decoded Include TAF

Data at: 1451 UTC 11 Dec 2017

KC09 111435Z AUTO 15007KT 10SM CLR M02/M05 A2989 RMK AO2 T10201047
KC09 111415Z AUTO 15007KT 10SM SCT120 M02/M05 A2990 RMK AO2 T10221048
KC09 111355Z AUTO 15006KT 10SM BKN110 M02/M05 A2992 RMK AO2 T10251050
KC09 111335Z AUTO 16007KT 10SM SCT080 BKN110 M03/M05 A2994 RMK AO2 T10301052
KC09 111315Z AUTO 16004KT 10SM BKN080 BKN100 BKN120 M03/M05 A2996 RMK AO2 T10311055
KC09 111255Z AUTO 17005KT 10SM SCT080 SCT100 BKN120 M03/M06 A2997 RMK AO2 T10311056
KC09 111235Z AUTO 16005KT 10SM BKN100 BKN120 M03/M06 A2996 RMK AO2 T10321056
KC09 111215Z AUTO 16005KT 10SM OVC110 M03/M06 A2997 RMK AO2 T10331056
KC09 111155Z AUTO 16005KT 10SM SCT100 SCT120 M04/M06 A2998 RMK AO2 T10361056 11036 21078
KC09 111135Z AUTO 14004KT 10SM SCT100 SCT120 M04/M06 A2999 RMK AO2 T10391058
KC09 111115Z AUTO 12003KT 10SM SCT065 BKN110 M04/M06 A3000 RMK AO2 T10371056
KC09 111055Z AUTO 00000KT 10SM SCT065 OVC110 M04/M06 A3002 RMK AO2 T10381057
KC09 111035Z AUTO 00000KT 10SM OVC110 M04/M06 A3001 RMK AO2 T10401060
KC09 111015Z AUTO 00000KT 10SM SCT100 OVC110 M04/M06 A3002 RMK AO2 T10411060
KC09 110955Z AUTO 20003KT 10SM OVC090 M05/M06 A3001 RMK AO2 T10471065
KC09 110935Z AUTO 20003KT 10SM OVC090 M05/M07 A3002 RMK AO2 T10501068
KC09 110915Z AUTO 20003KT 10SM BKN090 M05/M07 A3002 RMK AO2 T10541070
KC09 110855Z AUTO 22004KT 10SM CLR M06/M07 A3004 RMK AO2 T10611074
KC09 110835Z AUTO 16003KT 10SM CLR M07/M08 A3002 RMK AO2 T10691081
KC09 110815Z AUTO 17003KT 10SM CLR M07/M08 A3004 RMK AO2 T10661080
KC09 110755Z AUTO 00000KT 10SM CLR M06/M08 A3004 RMK AO2 T10641079
KC09 110735Z AUTO 00000KT 10SM CLR M06/M08 A3005 RMK AO2 T10601076
KC09 110715Z AUTO 00000KT 10SM CLR M07/M08 A3006 RMK AO2 T10671085
KC09 110655Z AUTO 00000KT 10SM CLR M07/M09 A3006 RMK AO2 T10691086
KC09 110635Z AUTO 00000KT 10SM CLR M08/M09 A3006 RMK AO2 T10771094
KC09 110615Z AUTO 00000KT 10SM CLR M07/M10 A3008 RMK AO2 T10751096
KC09 110555Z AUTO 29003KT 10SM CLR M05/M08 A3007 RMK AO2 T10551080 11005 21065 400281088
KC09 110535Z AUTO 00000KT 10SM CLR M06/M09 A3009 RMK AO2 T10611086
KC09 110515Z AUTO 00000KT 10SM CLR M06/M08 A3009 RMK AO2 T10611082
KC09 110455Z AUTO 00000KT 10SM CLR M06/M08 A3009 RMK AO2 T10601083
KC09 110435Z AUTO 00000KT 10SM CLR M05/M08 A3009 RMK AO2 T10551077
KC09 110415Z AUTO 00000KT 10SM CLR M05/M08 A3009 RMK AO2 T10541080
KC09 110355Z AUTO 00000KT 10SM CLR M05/M08 A3009 RMK AO2 T10521077
KC09 110335Z AUTO 00000KT 10SM CLR M04/M07 A3009 RMK AO2 T10411074
KC09 110315Z AUTO 00000KT 10SM CLR M04/M07 A3008 RMK AO2 T10401072
KC09 110255Z AUTO 35003KT 10SM CLR M05/M07 A3008 RMK AO2 T10461075
KC09 110235Z AUTO 31005KT 10SM CLR M05/M08 A3008 RMK AO2 T10491079
KC09 110210Z AUTO 32004KT 10SM SCT032 M02/M07 A3008 RMK AO2 T10251066
KC09 110155Z AUTO 32005KT 10SM SCT032 M02/M06 A3008 RMK AO2 T10231064
KC09 110135Z AUTO 31006KT 10SM SCT032 M03/M07 A3007 RMK AO2 T10261066
KC09 110115Z AUTO 31006KT 10SM BKN032 BKN120 M02/M06 A3006 RMK AO2 T10211065
KC09 110055Z AUTO 30007KT 10SM SCT032 SCT120 M01/M06 A3006 RMK AO2 T10131062
KC09 110035Z AUTO 31006KT 10SM SCT032 00/M06 A3005 RMK AO2 T10051060
KC09 110015Z AUTO 31007KT 10SM BKN030 00/M06 A3004 RMK AO2 T10051061
KC09 102355Z AUTO 30008KT 10SM OVC030 M01/M06 A3004 RMK AO2 T10071063 10028 21010
KC09 102335Z AUTO 31005KT 10SM OVC030 M01/M06 A3003 RMK AO2 T10071064
KC09 102315Z AUTO 32005KT 10SM OVC032 00/M06 A3003 RMK AO2 T10051064
KC09 102255Z AUTO 32007KT 10SM OVC032 00/M06 A3002 RMK AO2 T10051064
KC09 102235Z AUTO 33007KT 10SM OVC030 00/M06 A3001 RMK AO2 T10021063
KC09 102215Z AUTO 33007KT 10SM OVC030 00/M06 A3000 RMK AO2 T00011060
KC09 102155Z AUTO 33009KT 10SM OVC030 01/M06 A2999 RMK AO2 T00051057
KC09 102135Z AUTO 33008G14KT 310V010 10SM OVC030 01/M06 A2997 RMK AO2 T00071056
KC09 102115Z AUTO 33009G14KT 10SM OVC030 01/M05 A2994 RMK AO2 T00111055
KC09 102055Z AUTO 32011G16KT 10SM OVC034 02/M06 A2994 RMK AO2 T00151057
KC09 102035Z AUTO 32010G16KT 10SM OVC034 02/M06 A2992 RMK AO2 T00201058
KC09 102015Z AUTO 31013KT 10SM SCT034 03/M06 A2991 RMK AO2 T00261057
KC09 101955Z AUTO 30013G17KT 10SM CLR 03/M06 A2990 RMK AO2 T00271058
KC09 101935Z AUTO 31013KT 10SM CLR 03/M06 A2990 RMK AO2 T00281058
KC09 101915Z AUTO 30012G16KT 10SM CLR 03/M06 A2988 RMK AO2 T00251061
KC09 101855Z AUTO 28014G18KT 10SM CLR 02/M06 A2989 RMK AO2 T00241061
KC09 101835Z AUTO 29012G17KT 10SM CLR 02/M06 A2988 RMK AO2 T00221061
KC09 101815Z AUTO 28013G18KT 10SM CLR 02/M06 A2988 RMK AO2 T00191063
KC09 101755Z AUTO 26013G17KT 10SM CLR 02/M06 A2988 RMK AO2 T00151065 10015 21045
KC09 101735Z AUTO 27013G18KT 10SM CLR 01/M07 A2989 RMK AO2 T00111067
KC09 101715Z AUTO 28015G18KT 10SM CLR 01/M07 A2991 RMK AO2 T00111068
KC09 101655Z AUTO 27012KT 10SM CLR 01/M07 A2990 RMK AO2 T00061071
KC09 101635Z AUTO 25014G19KT 10SM CLR 00/M07 A2991 RMK AO2 T00041070
KC09 101615Z AUTO 25016G21KT 10SM CLR 00/M07 A2991 RMK AO2 T00011074
KC09 101555Z AUTO 23013G16KT 10SM CLR 00/M07 A2991 RMK AO2 T00001072
KC09 101535Z AUTO 22013KT 10SM CLR M01/M08 A2992 RMK AO2 T10101076
KC09 101515Z AUTO 22014G19KT 10SM CLR M01/M08 A2992 RMK AO2 T10151080
KC09 101455Z AUTO 21014G19KT 10SM CLR M02/M08 A2992 RMK AO2 T10211081
KC09 101435Z AUTO 21012G17KT 10SM CLR M03/M08 A2993 RMK AO2 T10301084
KC09 101415Z AUTO 20013KT 10SM CLR M03/M08 A2992 RMK AO2 T10351085
KC09 101355Z AUTO 20011G16KT 10SM CLR M04/M09 A2993 RMK AO2 T10401086
KC09 101335Z AUTO 21011KT 10SM CLR M04/M09 A2994 RMK AO2 T10451090
KC09 101315Z AUTO 20010KT 10SM CLR M04/M09 A2995 RMK AO2 T10431087
KC09 101255Z AUTO 20011KT 10SM SCT090 M04/M09 A2995 RMK AO2 T10431086
KC09 101235Z AUTO 21009KT 10SM OVC090 M04/M08 A2996 RMK AO2 T10411085
KC09 101215Z AUTO 21007KT 10SM OVC100 M04/M08 A2997 RMK AO2 T10421085
KC09 101155Z AUTO 21007KT 10SM OVC100 M04/M08 A2996 RMK AO2 T10401084 11040 21088
KC09 101135Z AUTO 22007KT 10SM OVC100 M04/M08 A2997 RMK AO2 T10411083
KC09 101115Z AUTO 21008KT 10SM OVC100 M04/M08 A2997 RMK AO2 T10421085
KC09 101055Z AUTO 22010KT 10SM OVC100 M05/M09 A2997 RMK AO2 T10461086
KC09 101035Z AUTO 22007KT 10SM OVC100 M05/M08 A2999 RMK AO2 T10501085
KC09 101015Z AUTO 21007KT 10SM SCT055 OVC090 M05/M09 A2998 RMK AO2 T10521088
KC09 100955Z AUTO 22008KT 10SM OVC090 M05/M09 A2999 RMK AO2 T10541091
KC09 100935Z AUTO 19007KT 10SM BKN090 BKN110 M05/M09 A2999 RMK AO2 T10551092
KC09 100915Z AUTO 21008KT 10SM BKN090 OVC110 M06/M09 A3000 RMK AO2 T10561094
KC09 100855Z AUTO 22006KT 10SM SCT090 BKN110 M06/M09 A3002 RMK AO2 T10601095
KC09 100835Z AUTO 22006KT 10SM SCT100 M06/M09 A3002 RMK AO2 T10621095
KC09 100815Z AUTO 23006KT 10SM BKN100 M06/M09 A3003 RMK AO2 T10601095
KC09 100755Z AUTO 24007KT 10SM OVC110 M06/M10 A3004 RMK AO2 T10621096
KC09 100735Z AUTO 25006KT 10SM BKN100 M07/M10 A3005 RMK AO2 T10701100
KC09 100715Z AUTO 24005KT 10SM SCT100 BKN120 M07/M10 A3005 RMK AO2 T10731103
KC09 100655Z AUTO 25005KT 10SM CLR M08/M11 A3006 RMK AO2 T10791107
KC09 100635Z AUTO 25005KT 10SM CLR M08/M11 A3006 RMK AO2 T10851112
KC09 100615Z AUTO 25005KT 10SM CLR M09/M11 A3007 RMK AO2 T10881115
KC09 100555Z AUTO 26005KT 10SM CLR M09/M11 A3007 RMK AO2 T10861115 11042 21090 400001090
KC09 100535Z AUTO 24004KT 10SM CLR M09/M12 A3007 RMK AO2 T10901117
KC09 100515Z AUTO 25005KT 10SM CLR M08/M12 A3009 RMK AO2 T10841116
KC09 100455Z AUTO 27007KT 10SM CLR M08/M11 A3010 RMK AO2 T10821114
KC09 100435Z AUTO 26006KT 10SM CLR M08/M11 A3010 RMK AO2 T10821113
KC09 100415Z AUTO 26006KT 10SM CLR M08/M11 A3010 RMK AO2 T10771111
KC09 100355Z AUTO 26005KT 10SM CLR M08/M11 A3009 RMK AO2 T10771111
KC09 100335Z AUTO 26007KT 10SM CLR M07/M11 A3009 RMK AO2 T10721107
KC09 100315Z AUTO 27005KT 10SM CLR M07/M10 A3009 RMK AO2 T10661105
KC09 100255Z AUTO 28007KT 10SM CLR M06/M10 A3009 RMK AO2 T10641103